sensor_id;sensor_type;location;lat;lon;timestamp;P1;durP1;ratioP1;P2;durP2;ratioP2
52866;SDS011;38739;53.324;6.862;2022-09-30T00:01:47;7.38;;;5.18;;
52866;SDS011;38739;53.324;6.862;2022-09-30T00:04:16;8.10;;;5.90;;
52866;SDS011;38739;53.324;6.862;2022-09-30T00:06:47;8.27;;;5.68;;
52866;SDS011;38739;53.324;6.862;2022-09-30T00:09:14;6.95;;;5.55;;
52866;SDS011;38739;53.324;6.862;2022-09-30T00:11:41;10.90;;;6.13;;
52866;SDS011;38739;53.324;6.862;2022-09-30T00:14:09;8.77;;;6.00;;
52866;SDS011;38739;53.324;6.862;2022-09-30T00:16:47;9.70;;;5.72;;
52866;SDS011;38739;53.324;6.862;2022-09-30T00:19:13;10.00;;;5.55;;
52866;SDS011;38739;53.324;6.862;2022-09-30T00:21:39;8.18;;;6.03;;
52866;SDS011;38739;53.324;6.862;2022-09-30T00:24:05;9.23;;;6.32;;
52866;SDS011;38739;53.324;6.862;2022-09-30T00:26:31;9.65;;;5.70;;
52866;SDS011;38739;53.324;6.862;2022-09-30T00:28:58;8.63;;;6.10;;
52866;SDS011;38739;53.324;6.862;2022-09-30T00:31:26;7.75;;;5.50;;
52866;SDS011;38739;53.324;6.862;2022-09-30T00:33:55;9.77;;;5.60;;
52866;SDS011;38739;53.324;6.862;2022-09-30T00:36:40;8.75;;;5.30;;
52866;SDS011;38739;53.324;6.862;2022-09-30T00:39:17;7.18;;;5.03;;
52866;SDS011;38739;53.324;6.862;2022-09-30T00:41:48;10.85;;;5.90;;
52866;SDS011;38739;53.324;6.862;2022-09-30T00:47:04;8.07;;;4.60;;
52866;SDS011;38739;53.324;6.862;2022-09-30T00:49:44;8.02;;;5.35;;
52866;SDS011;38739;53.324;6.862;2022-09-30T00:52:09;8.50;;;4.90;;
52866;SDS011;38739;53.324;6.862;2022-09-30T00:54:35;7.18;;;5.28;;
52866;SDS011;38739;53.324;6.862;2022-09-30T00:57:02;8.10;;;5.07;;
52866;SDS011;38739;53.324;6.862;2022-09-30T00:59:29;7.85;;;5.10;;
52866;SDS011;38739;53.324;6.862;2022-09-30T01:02:02;8.27;;;5.38;;
52866;SDS011;38739;53.324;6.862;2022-09-30T01:04:29;9.00;;;5.85;;
52866;SDS011;38739;53.324;6.862;2022-09-30T01:07:03;7.25;;;5.20;;
52866;SDS011;38739;53.324;6.862;2022-09-30T01:09:34;8.50;;;4.97;;
52866;SDS011;38739;53.324;6.862;2022-09-30T01:12:03;8.52;;;5.10;;
52866;SDS011;38739;53.324;6.862;2022-09-30T01:14:31;9.23;;;4.80;;
52866;SDS011;38739;53.324;6.862;2022-09-30T01:19:43;9.35;;;5.63;;
52866;SDS011;38739;53.324;6.862;2022-09-30T01:22:32;10.48;;;6.35;;
52866;SDS011;38739;53.324;6.862;2022-09-30T01:37:12;8.63;;;6.95;;
52866;SDS011;38739;53.324;6.862;2022-09-30T01:42:47;8.90;;;6.80;;
52866;SDS011;38739;53.324;6.862;2022-09-30T01:45:19;8.02;;;6.70;;
52866;SDS011;38739;53.324;6.862;2022-09-30T01:58:58;8.75;;;6.90;;
52866;SDS011;38739;53.324;6.862;2022-09-30T02:01:43;5.70;;;4.82;;
52866;SDS011;38739;53.324;6.862;2022-09-30T02:04:20;10.52;;;5.93;;
52866;SDS011;38739;53.324;6.862;2022-09-30T02:06:52;11.63;;;6.30;;
52866;SDS011;38739;53.324;6.862;2022-09-30T02:09:27;9.00;;;6.45;;
52866;SDS011;38739;53.324;6.862;2022-09-30T02:11:58;8.50;;;5.70;;
52866;SDS011;38739;53.324;6.862;2022-09-30T02:14:33;8.35;;;6.55;;
52866;SDS011;38739;53.324;6.862;2022-09-30T02:17:40;7.45;;;6.28;;
52866;SDS011;38739;53.324;6.862;2022-09-30T02:20:05;10.43;;;6.55;;
52866;SDS011;38739;53.324;6.862;2022-09-30T02:22:36;9.65;;;7.10;;
52866;SDS011;38739;53.324;6.862;2022-09-30T02:25:11;7.47;;;6.55;;
52866;SDS011;38739;53.324;6.862;2022-09-30T02:27:46;9.40;;;6.80;;
52866;SDS011;38739;53.324;6.862;2022-09-30T02:30:15;8.07;;;6.90;;
52866;SDS011;38739;53.324;6.862;2022-09-30T02:32:47;9.75;;;6.90;;
52866;SDS011;38739;53.324;6.862;2022-09-30T02:35:44;7.43;;;6.47;;
52866;SDS011;38739;53.324;6.862;2022-09-30T02:38:11;10.35;;;6.03;;
52866;SDS011;38739;53.324;6.862;2022-09-30T02:40:56;6.45;;;5.15;;
52866;SDS011;38739;53.324;6.862;2022-09-30T02:43:28;7.90;;;5.75;;
52866;SDS011;38739;53.324;6.862;2022-09-30T02:48:27;9.10;;;6.53;;
52866;SDS011;38739;53.324;6.862;2022-09-30T02:51:07;8.05;;;5.50;;
52866;SDS011;38739;53.324;6.862;2022-09-30T02:53:51;8.77;;;6.40;;
52866;SDS011;38739;53.324;6.862;2022-09-30T02:59:02;8.05;;;6.07;;
52866;SDS011;38739;53.324;6.862;2022-09-30T03:01:29;6.75;;;6.05;;
52866;SDS011;38739;53.324;6.862;2022-09-30T03:04:00;8.25;;;6.40;;
52866;SDS011;38739;53.324;6.862;2022-09-30T03:06:28;7.72;;;5.65;;
52866;SDS011;38739;53.324;6.862;2022-09-30T03:08:54;7.68;;;5.97;;
52866;SDS011;38739;53.324;6.862;2022-09-30T03:11:21;6.68;;;5.97;;
52866;SDS011;38739;53.324;6.862;2022-09-30T03:30:21;5.90;;;5.10;;
52866;SDS011;38739;53.324;6.862;2022-09-30T03:36:05;5.80;;;5.20;;
52866;SDS011;38739;53.324;6.862;2022-09-30T03:41:16;7.85;;;5.10;;
52866;SDS011;38739;53.324;6.862;2022-09-30T03:49:08;7.43;;;5.72;;
52866;SDS011;38739;53.324;6.862;2022-09-30T03:51:39;7.68;;;5.60;;
52866;SDS011;38739;53.324;6.862;2022-09-30T03:54:09;6.35;;;5.22;;
52866;SDS011;38739;53.324;6.862;2022-09-30T03:56:36;6.72;;;5.07;;
52866;SDS011;38739;53.324;6.862;2022-09-30T03:59:10;7.15;;;5.75;;
52866;SDS011;38739;53.324;6.862;2022-09-30T04:01:37;7.60;;;5.90;;
52866;SDS011;38739;53.324;6.862;2022-09-30T04:04:03;7.65;;;5.75;;
52866;SDS011;38739;53.324;6.862;2022-09-30T04:06:29;10.10;;;5.97;;
52866;SDS011;38739;53.324;6.862;2022-09-30T04:08:55;8.20;;;6.40;;
52866;SDS011;38739;53.324;6.862;2022-09-30T04:11:20;9.52;;;6.70;;
52866;SDS011;38739;53.324;6.862;2022-09-30T04:13:46;8.75;;;6.40;;
52866;SDS011;38739;53.324;6.862;2022-09-30T04:16:12;10.40;;;6.28;;
52866;SDS011;38739;53.324;6.862;2022-09-30T04:18:38;8.68;;;6.78;;
52866;SDS011;38739;53.324;6.862;2022-09-30T04:21:07;7.07;;;6.03;;
52866;SDS011;38739;53.324;6.862;2022-09-30T04:23:34;9.65;;;7.40;;
52866;SDS011;38739;53.324;6.862;2022-09-30T04:26:00;10.43;;;6.75;;
52866;SDS011;38739;53.324;6.862;2022-09-30T04:28:26;7.40;;;5.93;;
52866;SDS011;38739;53.324;6.862;2022-09-30T04:30:52;9.02;;;6.05;;
52866;SDS011;38739;53.324;6.862;2022-09-30T04:33:18;15.23;;;6.50;;
52866;SDS011;38739;53.324;6.862;2022-09-30T04:35:44;18.23;;;7.15;;
52866;SDS011;38739;53.324;6.862;2022-09-30T04:38:09;10.52;;;6.75;;
52866;SDS011;38739;53.324;6.862;2022-09-30T04:40:36;10.30;;;6.47;;
52866;SDS011;38739;53.324;6.862;2022-09-30T04:43:03;13.32;;;6.07;;
52866;SDS011;38739;53.324;6.862;2022-09-30T04:45:29;9.77;;;5.38;;
52866;SDS011;38739;53.324;6.862;2022-09-30T04:47:55;9.68;;;5.95;;
52866;SDS011;38739;53.324;6.862;2022-09-30T04:50:21;6.78;;;5.95;;
52866;SDS011;38739;53.324;6.862;2022-09-30T04:52:47;6.82;;;5.70;;
52866;SDS011;38739;53.324;6.862;2022-09-30T04:55:12;7.43;;;5.53;;
52866;SDS011;38739;53.324;6.862;2022-09-30T04:57:38;8.25;;;5.82;;
52866;SDS011;38739;53.324;6.862;2022-09-30T05:00:09;8.82;;;6.50;;
52866;SDS011;38739;53.324;6.862;2022-09-30T05:02:35;8.88;;;5.72;;
52866;SDS011;38739;53.324;6.862;2022-09-30T05:05:01;11.27;;;5.78;;
52866;SDS011;38739;53.324;6.862;2022-09-30T05:07:31;7.28;;;5.90;;
52866;SDS011;38739;53.324;6.862;2022-09-30T05:09:56;7.63;;;6.72;;
52866;SDS011;38739;53.324;6.862;2022-09-30T05:12:22;7.57;;;6.32;;
52866;SDS011;38739;53.324;6.862;2022-09-30T05:14:49;8.02;;;7.00;;
52866;SDS011;38739;53.324;6.862;2022-09-30T05:17:14;8.57;;;7.68;;
52866;SDS011;38739;53.324;6.862;2022-09-30T05:19:40;9.75;;;7.38;;
52866;SDS011;38739;53.324;6.862;2022-09-30T05:22:06;12.35;;;8.88;;
52866;SDS011;38739;53.324;6.862;2022-09-30T05:24:31;11.60;;;9.50;;
52866;SDS011;38739;53.324;6.862;2022-09-30T05:26:57;15.65;;;10.50;;
52866;SDS011;38739;53.324;6.862;2022-09-30T05:29:23;15.88;;;9.63;;
52866;SDS011;38739;53.324;6.862;2022-09-30T05:31:48;10.15;;;8.90;;
52866;SDS011;38739;53.324;6.862;2022-09-30T05:34:14;10.18;;;9.07;;
52866;SDS011;38739;53.324;6.862;2022-09-30T05:36:41;11.02;;;8.82;;
52866;SDS011;38739;53.324;6.862;2022-09-30T05:39:08;11.55;;;9.27;;
52866;SDS011;38739;53.324;6.862;2022-09-30T05:41:35;10.80;;;8.45;;
52866;SDS011;38739;53.324;6.862;2022-09-30T05:44:00;14.18;;;9.65;;
52866;SDS011;38739;53.324;6.862;2022-09-30T05:46:27;10.85;;;9.15;;
52866;SDS011;38739;53.324;6.862;2022-09-30T05:48:53;11.13;;;9.38;;
52866;SDS011;38739;53.324;6.862;2022-09-30T05:51:19;11.02;;;8.90;;
52866;SDS011;38739;53.324;6.862;2022-09-30T05:53:46;10.82;;;9.20;;
52866;SDS011;38739;53.324;6.862;2022-09-30T05:56:11;8.85;;;7.95;;
52866;SDS011;38739;53.324;6.862;2022-09-30T05:58:37;10.27;;;9.18;;
52866;SDS011;38739;53.324;6.862;2022-09-30T06:01:10;10.48;;;8.10;;
52866;SDS011;38739;53.324;6.862;2022-09-30T06:03:37;7.90;;;7.10;;
52866;SDS011;38739;53.324;6.862;2022-09-30T06:06:03;10.13;;;8.48;;
52866;SDS011;38739;53.324;6.862;2022-09-30T06:08:30;11.68;;;8.85;;
52866;SDS011;38739;53.324;6.862;2022-09-30T06:10:56;10.23;;;8.65;;
52866;SDS011;38739;53.324;6.862;2022-09-30T06:13:25;9.68;;;8.35;;
52866;SDS011;38739;53.324;6.862;2022-09-30T06:15:55;9.77;;;8.77;;
52866;SDS011;38739;53.324;6.862;2022-09-30T06:18:21;9.25;;;8.00;;
52866;SDS011;38739;53.324;6.862;2022-09-30T06:20:47;11.20;;;9.25;;
52866;SDS011;38739;53.324;6.862;2022-09-30T06:23:13;9.38;;;8.38;;
52866;SDS011;38739;53.324;6.862;2022-09-30T06:25:39;9.30;;;8.18;;
52866;SDS011;38739;53.324;6.862;2022-09-30T06:28:07;9.57;;;8.68;;
52866;SDS011;38739;53.324;6.862;2022-09-30T06:30:33;9.65;;;8.65;;
52866;SDS011;38739;53.324;6.862;2022-09-30T06:32:59;10.70;;;8.55;;
52866;SDS011;38739;53.324;6.862;2022-09-30T06:35:25;11.02;;;9.35;;
52866;SDS011;38739;53.324;6.862;2022-09-30T06:37:52;11.57;;;8.90;;
52866;SDS011;38739;53.324;6.862;2022-09-30T06:40:18;10.50;;;9.35;;
52866;SDS011;38739;53.324;6.862;2022-09-30T06:42:48;12.57;;;10.63;;
52866;SDS011;38739;53.324;6.862;2022-09-30T06:45:14;14.02;;;10.50;;
52866;SDS011;38739;53.324;6.862;2022-09-30T06:47:43;13.90;;;10.00;;
52866;SDS011;38739;53.324;6.862;2022-09-30T06:50:10;16.23;;;11.88;;
52866;SDS011;38739;53.324;6.862;2022-09-30T06:52:36;15.60;;;12.15;;
52866;SDS011;38739;53.324;6.862;2022-09-30T06:55:01;16.30;;;11.95;;
52866;SDS011;38739;53.324;6.862;2022-09-30T06:57:30;16.50;;;12.05;;
52866;SDS011;38739;53.324;6.862;2022-09-30T06:59:56;14.65;;;12.20;;
52866;SDS011;38739;53.324;6.862;2022-09-30T07:02:21;15.65;;;12.60;;
52866;SDS011;38739;53.324;6.862;2022-09-30T07:04:47;18.52;;;13.43;;
52866;SDS011;38739;53.324;6.862;2022-09-30T07:07:13;16.13;;;12.80;;
52866;SDS011;38739;53.324;6.862;2022-09-30T07:09:39;16.10;;;13.20;;
52866;SDS011;38739;53.324;6.862;2022-09-30T07:12:04;20.60;;;14.88;;
52866;SDS011;38739;53.324;6.862;2022-09-30T07:14:31;19.67;;;14.90;;
52866;SDS011;38739;53.324;6.862;2022-09-30T07:16:57;20.90;;;15.55;;
52866;SDS011;38739;53.324;6.862;2022-09-30T07:19:23;21.88;;;14.93;;
52866;SDS011;38739;53.324;6.862;2022-09-30T07:21:49;19.85;;;14.98;;
52866;SDS011;38739;53.324;6.862;2022-09-30T07:24:16;24.25;;;16.40;;
52866;SDS011;38739;53.324;6.862;2022-09-30T07:26:41;22.77;;;15.90;;
52866;SDS011;38739;53.324;6.862;2022-09-30T07:29:10;19.83;;;15.07;;
52866;SDS011;38739;53.324;6.862;2022-09-30T07:31:38;20.13;;;14.23;;
52866;SDS011;38739;53.324;6.862;2022-09-30T07:34:05;19.83;;;14.60;;
52866;SDS011;38739;53.324;6.862;2022-09-30T07:36:31;18.25;;;14.07;;
52866;SDS011;38739;53.324;6.862;2022-09-30T07:39:02;18.27;;;13.73;;
52866;SDS011;38739;53.324;6.862;2022-09-30T07:41:29;15.65;;;12.82;;
52866;SDS011;38739;53.324;6.862;2022-09-30T07:43:55;17.35;;;13.63;;
52866;SDS011;38739;53.324;6.862;2022-09-30T07:46:30;17.35;;;12.68;;
52866;SDS011;38739;53.324;6.862;2022-09-30T07:48:58;14.55;;;11.73;;
52866;SDS011;38739;53.324;6.862;2022-09-30T07:51:33;13.55;;;10.40;;
52866;SDS011;38739;53.324;6.862;2022-09-30T07:54:08;15.27;;;9.98;;
52866;SDS011;38739;53.324;6.862;2022-09-30T07:56:37;13.77;;;9.57;;
52866;SDS011;38739;53.324;6.862;2022-09-30T07:59:04;10.30;;;8.63;;
52866;SDS011;38739;53.324;6.862;2022-09-30T08:01:31;10.88;;;8.38;;
52866;SDS011;38739;53.324;6.862;2022-09-30T08:03:59;8.90;;;7.05;;
52866;SDS011;38739;53.324;6.862;2022-09-30T08:06:27;10.02;;;7.70;;
52866;SDS011;38739;53.324;6.862;2022-09-30T08:08:55;8.13;;;6.55;;
52866;SDS011;38739;53.324;6.862;2022-09-30T08:11:21;7.13;;;6.40;;
52866;SDS011;38739;53.324;6.862;2022-09-30T08:13:54;8.18;;;6.43;;
52866;SDS011;38739;53.324;6.862;2022-09-30T08:16:21;9.00;;;6.45;;
52866;SDS011;38739;53.324;6.862;2022-09-30T08:18:48;7.47;;;5.72;;
52866;SDS011;38739;53.324;6.862;2022-09-30T08:21:17;8.13;;;6.00;;
52866;SDS011;38739;53.324;6.862;2022-09-30T08:23:43;6.97;;;5.85;;
52866;SDS011;38739;53.324;6.862;2022-09-30T08:26:10;7.50;;;5.68;;
52866;SDS011;38739;53.324;6.862;2022-09-30T08:28:40;5.30;;;4.60;;
52866;SDS011;38739;53.324;6.862;2022-09-30T08:31:11;7.40;;;4.70;;
52866;SDS011;38739;53.324;6.862;2022-09-30T08:33:39;5.60;;;4.72;;
52866;SDS011;38739;53.324;6.862;2022-09-30T08:36:09;5.50;;;4.35;;
52866;SDS011;38739;53.324;6.862;2022-09-30T08:38:37;6.80;;;4.63;;
52866;SDS011;38739;53.324;6.862;2022-09-30T08:46:34;4.78;;;3.75;;
52866;SDS011;38739;53.324;6.862;2022-09-30T08:51:45;6.38;;;3.78;;
52866;SDS011;38739;53.324;6.862;2022-09-30T08:54:13;7.10;;;3.83;;
52866;SDS011;38739;53.324;6.862;2022-09-30T08:56:42;4.10;;;3.53;;
52866;SDS011;38739;53.324;6.862;2022-09-30T09:02:01;4.70;;;3.35;;
52866;SDS011;38739;53.324;6.862;2022-09-30T09:04:49;3.95;;;3.50;;
52866;SDS011;38739;53.324;6.862;2022-09-30T09:07:25;5.05;;;3.28;;
52866;SDS011;38739;53.324;6.862;2022-09-30T09:12:54;5.03;;;2.80;;
52866;SDS011;38739;53.324;6.862;2022-09-30T09:20:35;4.57;;;2.70;;
52866;SDS011;38739;53.324;6.862;2022-09-30T09:23:08;4.10;;;2.63;;
52866;SDS011;38739;53.324;6.862;2022-09-30T09:25:37;4.22;;;2.63;;
52866;SDS011;38739;53.324;6.862;2022-09-30T09:28:05;3.00;;;2.50;;
52866;SDS011;38739;53.324;6.862;2022-09-30T09:30:56;4.65;;;2.80;;
52866;SDS011;38739;53.324;6.862;2022-09-30T09:33:27;3.58;;;2.85;;
52866;SDS011;38739;53.324;6.862;2022-09-30T09:36:06;3.67;;;2.45;;
52866;SDS011;38739;53.324;6.862;2022-09-30T09:44:38;5.10;;;2.75;;
52866;SDS011;38739;53.324;6.862;2022-09-30T09:47:22;2.92;;;2.60;;
52866;SDS011;38739;53.324;6.862;2022-09-30T09:49:53;2.83;;;2.35;;
52866;SDS011;38739;53.324;6.862;2022-09-30T09:52:33;5.95;;;2.45;;
52866;SDS011;38739;53.324;6.862;2022-09-30T09:55:01;3.17;;;2.53;;
52866;SDS011;38739;53.324;6.862;2022-09-30T09:57:28;1.77;;;1.60;;
52866;SDS011;38739;53.324;6.862;2022-09-30T10:02:24;2.83;;;2.13;;
52866;SDS011;38739;53.324;6.862;2022-09-30T10:04:52;2.40;;;1.98;;
52866;SDS011;38739;53.324;6.862;2022-09-30T10:07:26;3.20;;;1.90;;
52866;SDS011;38739;53.324;6.862;2022-09-30T10:12:42;4.00;;;1.90;;
52866;SDS011;38739;53.324;6.862;2022-09-30T10:15:13;3.75;;;2.33;;
52866;SDS011;38739;53.324;6.862;2022-09-30T10:17:43;3.03;;;2.30;;
52866;SDS011;38739;53.324;6.862;2022-09-30T10:23:14;2.80;;;2.17;;
52866;SDS011;38739;53.324;6.862;2022-09-30T10:26:35;2.60;;;2.00;;
52866;SDS011;38739;53.324;6.862;2022-09-30T10:28:45;4.13;;;2.25;;
52866;SDS011;38739;53.324;6.862;2022-09-30T10:31:20;1.83;;;1.23;;
52866;SDS011;38739;53.324;6.862;2022-09-30T10:36:38;2.85;;;1.70;;
52866;SDS011;38739;53.324;6.862;2022-09-30T10:39:22;2.83;;;1.40;;
52866;SDS011;38739;53.324;6.862;2022-09-30T10:44:59;2.13;;;1.60;;
52866;SDS011;38739;53.324;6.862;2022-09-30T10:47:29;3.38;;;1.48;;
52866;SDS011;38739;53.324;6.862;2022-09-30T10:49:55;2.42;;;1.00;;
52866;SDS011;38739;53.324;6.862;2022-09-30T10:52:26;1.40;;;0.80;;
52866;SDS011;38739;53.324;6.862;2022-09-30T10:55:00;2.95;;;0.93;;
52866;SDS011;38739;53.324;6.862;2022-09-30T10:57:31;1.50;;;0.70;;
52866;SDS011;38739;53.324;6.862;2022-09-30T10:59:59;0.82;;;0.77;;
52866;SDS011;38739;53.324;6.862;2022-09-30T11:13:20;1.00;;;0.73;;
52866;SDS011;38739;53.324;6.862;2022-09-30T11:16:20;2.25;;;0.95;;
52866;SDS011;38739;53.324;6.862;2022-09-30T11:27:11;2.13;;;1.48;;
52866;SDS011;38739;53.324;6.862;2022-09-30T11:29:50;2.17;;;1.55;;
52866;SDS011;38739;53.324;6.862;2022-09-30T11:39:01;2.75;;;1.98;;
52866;SDS011;38739;53.324;6.862;2022-09-30T11:41:44;4.95;;;2.20;;
52866;SDS011;38739;53.324;6.862;2022-09-30T11:44:27;2.90;;;1.80;;
52866;SDS011;38739;53.324;6.862;2022-09-30T11:52:41;2.08;;;1.63;;
52866;SDS011;38739;53.324;6.862;2022-09-30T12:00:33;1.42;;;1.00;;
52866;SDS011;38739;53.324;6.862;2022-09-30T12:03:12;2.38;;;1.05;;
52866;SDS011;38739;53.324;6.862;2022-09-30T12:05:57;2.75;;;0.80;;
52866;SDS011;38739;53.324;6.862;2022-09-30T12:08:32;1.40;;;0.70;;
52866;SDS011;38739;53.324;6.862;2022-09-30T12:14:21;1.88;;;1.10;;
52866;SDS011;38739;53.324;6.862;2022-09-30T12:19:18;2.30;;;0.88;;
52866;SDS011;38739;53.324;6.862;2022-09-30T12:22:11;1.25;;;1.02;;
52866;SDS011;38739;53.324;6.862;2022-09-30T12:24:53;2.22;;;1.15;;
52866;SDS011;38739;53.324;6.862;2022-09-30T12:29:56;2.10;;;1.27;;
52866;SDS011;38739;53.324;6.862;2022-09-30T12:33:13;1.98;;;1.13;;
52866;SDS011;38739;53.324;6.862;2022-09-30T12:36:07;2.60;;;1.23;;
52866;SDS011;38739;53.324;6.862;2022-09-30T12:47:02;1.35;;;1.10;;
52866;SDS011;38739;53.324;6.862;2022-09-30T12:49:35;1.40;;;1.20;;
52866;SDS011;38739;53.324;6.862;2022-09-30T12:52:04;2.38;;;1.20;;
52866;SDS011;38739;53.324;6.862;2022-09-30T12:54:40;2.10;;;1.40;;
52866;SDS011;38739;53.324;6.862;2022-09-30T12:57:31;2.30;;;1.20;;
52866;SDS011;38739;53.324;6.862;2022-09-30T13:00:03;1.48;;;1.20;;
52866;SDS011;38739;53.324;6.862;2022-09-30T13:26:04;1.63;;;1.10;;
52866;SDS011;38739;53.324;6.862;2022-09-30T13:31:31;1.10;;;0.80;;
52866;SDS011;38739;53.324;6.862;2022-09-30T13:34:23;1.30;;;0.90;;
52866;SDS011;38739;53.324;6.862;2022-09-30T13:44:49;3.40;;;1.50;;
52866;SDS011;38739;53.324;6.862;2022-09-30T13:47:36;2.05;;;1.40;;
52866;SDS011;38739;53.324;6.862;2022-09-30T13:50:24;3.22;;;1.60;;
52866;SDS011;38739;53.324;6.862;2022-09-30T13:53:00;5.18;;;1.60;;
52866;SDS011;38739;53.324;6.862;2022-09-30T13:55:44;2.72;;;1.58;;
52866;SDS011;38739;53.324;6.862;2022-09-30T14:09:49;3.92;;;2.10;;
52866;SDS011;38739;53.324;6.862;2022-09-30T14:23:28;4.93;;;3.20;;
52866;SDS011;38739;53.324;6.862;2022-09-30T14:26:12;6.55;;;4.38;;
52866;SDS011;38739;53.324;6.862;2022-09-30T14:31:55;5.50;;;3.63;;
52866;SDS011;38739;53.324;6.862;2022-09-30T14:34:24;5.35;;;3.97;;
52866;SDS011;38739;53.324;6.862;2022-09-30T14:36:51;5.88;;;4.05;;
52866;SDS011;38739;53.324;6.862;2022-09-30T14:39:23;5.00;;;3.85;;
52866;SDS011;38739;53.324;6.862;2022-09-30T14:41:57;9.85;;;4.97;;
52866;SDS011;38739;53.324;6.862;2022-09-30T14:44:26;9.20;;;5.50;;
52866;SDS011;38739;53.324;6.862;2022-09-30T14:46:57;7.22;;;5.60;;
52866;SDS011;38739;53.324;6.862;2022-09-30T14:49:27;6.28;;;5.57;;
52866;SDS011;38739;53.324;6.862;2022-09-30T14:52:00;8.93;;;6.28;;
52866;SDS011;38739;53.324;6.862;2022-09-30T14:54:30;7.20;;;6.50;;
52866;SDS011;38739;53.324;6.862;2022-09-30T14:56:58;7.97;;;7.15;;
52866;SDS011;38739;53.324;6.862;2022-09-30T14:59:32;8.20;;;7.38;;
52866;SDS011;38739;53.324;6.862;2022-09-30T15:02:09;7.75;;;6.90;;
52866;SDS011;38739;53.324;6.862;2022-09-30T15:04:41;8.70;;;7.80;;
52866;SDS011;38739;53.324;6.862;2022-09-30T15:09:38;9.98;;;8.63;;
52866;SDS011;38739;53.324;6.862;2022-09-30T15:12:11;10.23;;;8.55;;
52866;SDS011;38739;53.324;6.862;2022-09-30T15:14:53;10.55;;;9.48;;
52866;SDS011;38739;53.324;6.862;2022-09-30T15:17:39;9.82;;;8.93;;
52866;SDS011;38739;53.324;6.862;2022-09-30T15:23:01;10.48;;;9.43;;
52866;SDS011;38739;53.324;6.862;2022-09-30T15:25:39;9.80;;;8.80;;
52866;SDS011;38739;53.324;6.862;2022-09-30T15:28:08;11.82;;;10.07;;
52866;SDS011;38739;53.324;6.862;2022-09-30T15:30:35;11.60;;;9.88;;
52866;SDS011;38739;53.324;6.862;2022-09-30T15:33:01;10.65;;;9.65;;
52866;SDS011;38739;53.324;6.862;2022-09-30T15:35:29;13.07;;;9.85;;
52866;SDS011;38739;53.324;6.862;2022-09-30T15:40:52;11.32;;;10.00;;
52866;SDS011;38739;53.324;6.862;2022-09-30T15:43:31;11.60;;;10.50;;
52866;SDS011;38739;53.324;6.862;2022-09-30T15:48:40;11.05;;;9.88;;
52866;SDS011;38739;53.324;6.862;2022-09-30T15:53:55;11.45;;;10.25;;
52866;SDS011;38739;53.324;6.862;2022-09-30T15:56:34;11.85;;;10.57;;
52866;SDS011;38739;53.324;6.862;2022-09-30T16:11:41;10.55;;;9.45;;
52866;SDS011;38739;53.324;6.862;2022-09-30T16:14:16;12.25;;;9.45;;
52866;SDS011;38739;53.324;6.862;2022-09-30T16:17:04;10.25;;;9.25;;
52866;SDS011;38739;53.324;6.862;2022-09-30T16:19:30;10.43;;;9.40;;
52866;SDS011;38739;53.324;6.862;2022-09-30T16:21:57;11.88;;;9.38;;
52866;SDS011;38739;53.324;6.862;2022-09-30T16:26:55;13.30;;;11.27;;
52866;SDS011;38739;53.324;6.862;2022-09-30T16:29:24;11.38;;;10.27;;
52866;SDS011;38739;53.324;6.862;2022-09-30T16:31:52;13.00;;;10.93;;
52866;SDS011;38739;53.324;6.862;2022-09-30T16:34:21;12.60;;;11.15;;
52866;SDS011;38739;53.324;6.862;2022-09-30T16:37:02;12.82;;;11.52;;
52866;SDS011;38739;53.324;6.862;2022-09-30T16:39:34;14.05;;;11.88;;
52866;SDS011;38739;53.324;6.862;2022-09-30T16:42:00;12.55;;;11.30;;
52866;SDS011;38739;53.324;6.862;2022-09-30T16:44:28;13.73;;;12.00;;
52866;SDS011;38739;53.324;6.862;2022-09-30T16:47:02;13.30;;;11.77;;
52866;SDS011;38739;53.324;6.862;2022-09-30T16:49:28;12.90;;;11.60;;
52866;SDS011;38739;53.324;6.862;2022-09-30T16:51:54;13.77;;;12.13;;
52866;SDS011;38739;53.324;6.862;2022-09-30T16:54:20;13.38;;;12.00;;
52866;SDS011;38739;53.324;6.862;2022-09-30T16:56:46;12.70;;;11.43;;
52866;SDS011;38739;53.324;6.862;2022-09-30T16:59:12;14.93;;;13.20;;
52866;SDS011;38739;53.324;6.862;2022-09-30T17:01:39;15.95;;;12.93;;
52866;SDS011;38739;53.324;6.862;2022-09-30T17:04:06;15.38;;;12.60;;
52866;SDS011;38739;53.324;6.862;2022-09-30T17:06:32;13.68;;;12.30;;
52866;SDS011;38739;53.324;6.862;2022-09-30T17:08:58;12.80;;;11.50;;
52866;SDS011;38739;53.324;6.862;2022-09-30T17:11:29;11.98;;;10.85;;
52866;SDS011;38739;53.324;6.862;2022-09-30T17:13:59;18.20;;;11.88;;
52866;SDS011;38739;53.324;6.862;2022-09-30T17:16:26;12.88;;;11.48;;
52866;SDS011;38739;53.324;6.862;2022-09-30T17:18:52;12.30;;;11.02;;
52866;SDS011;38739;53.324;6.862;2022-09-30T17:21:19;13.23;;;10.65;;
52866;SDS011;38739;53.324;6.862;2022-09-30T17:23:47;11.45;;;10.23;;
52866;SDS011;38739;53.324;6.862;2022-09-30T17:26:13;12.30;;;9.98;;
52866;SDS011;38739;53.324;6.862;2022-09-30T17:28:39;11.43;;;9.82;;
52866;SDS011;38739;53.324;6.862;2022-09-30T17:31:06;10.40;;;9.30;;
52866;SDS011;38739;53.324;6.862;2022-09-30T17:33:35;10.70;;;9.02;;
52866;SDS011;38739;53.324;6.862;2022-09-30T17:36:03;11.75;;;9.13;;
52866;SDS011;38739;53.324;6.862;2022-09-30T17:38:31;13.05;;;8.60;;
52866;SDS011;38739;53.324;6.862;2022-09-30T17:40:57;10.07;;;8.90;;
52866;SDS011;38739;53.324;6.862;2022-09-30T17:43:42;10.98;;;8.80;;
52866;SDS011;38739;53.324;6.862;2022-09-30T17:46:11;11.30;;;8.52;;
52866;SDS011;38739;53.324;6.862;2022-09-30T17:48:42;10.20;;;8.25;;
52866;SDS011;38739;53.324;6.862;2022-09-30T17:51:10;10.30;;;8.13;;
52866;SDS011;38739;53.324;6.862;2022-09-30T17:53:35;10.32;;;8.70;;
52866;SDS011;38739;53.324;6.862;2022-09-30T17:56:06;8.85;;;7.95;;
52866;SDS011;38739;53.324;6.862;2022-09-30T17:58:41;8.95;;;7.80;;
52866;SDS011;38739;53.324;6.862;2022-09-30T18:01:12;9.18;;;8.27;;
52866;SDS011;38739;53.324;6.862;2022-09-30T18:03:39;9.25;;;7.93;;
52866;SDS011;38739;53.324;6.862;2022-09-30T18:06:05;10.45;;;7.95;;
52866;SDS011;38739;53.324;6.862;2022-09-30T18:08:31;8.73;;;7.85;;
52866;SDS011;38739;53.324;6.862;2022-09-30T18:10:58;8.52;;;7.63;;
52866;SDS011;38739;53.324;6.862;2022-09-30T18:13:24;8.20;;;7.20;;
52866;SDS011;38739;53.324;6.862;2022-09-30T18:15:51;7.90;;;7.10;;
52866;SDS011;38739;53.324;6.862;2022-09-30T18:18:17;7.90;;;7.10;;
52866;SDS011;38739;53.324;6.862;2022-09-30T18:20:43;8.38;;;7.47;;
52866;SDS011;38739;53.324;6.862;2022-09-30T18:23:10;9.93;;;7.88;;
52866;SDS011;38739;53.324;6.862;2022-09-30T18:25:36;9.27;;;7.93;;
52866;SDS011;38739;53.324;6.862;2022-09-30T18:28:04;8.85;;;7.78;;
52866;SDS011;38739;53.324;6.862;2022-09-30T18:30:33;10.73;;;7.93;;
52866;SDS011;38739;53.324;6.862;2022-09-30T18:33:00;8.90;;;8.05;;
52866;SDS011;38739;53.324;6.862;2022-09-30T18:35:27;8.93;;;8.13;;
52866;SDS011;38739;53.324;6.862;2022-09-30T18:37:54;9.40;;;8.50;;
52866;SDS011;38739;53.324;6.862;2022-09-30T18:40:23;10.00;;;8.50;;
52866;SDS011;38739;53.324;6.862;2022-09-30T18:42:54;9.48;;;8.55;;
52866;SDS011;38739;53.324;6.862;2022-09-30T18:45:22;9.38;;;8.35;;
52866;SDS011;38739;53.324;6.862;2022-09-30T18:47:53;9.57;;;8.60;;
52866;SDS011;38739;53.324;6.862;2022-09-30T18:50:20;11.15;;;8.43;;
52866;SDS011;38739;53.324;6.862;2022-09-30T18:52:49;11.38;;;8.70;;
52866;SDS011;38739;53.324;6.862;2022-09-30T18:55:16;11.02;;;8.73;;
52866;SDS011;38739;53.324;6.862;2022-09-30T18:57:43;9.48;;;7.85;;
52866;SDS011;38739;53.324;6.862;2022-09-30T19:00:12;11.05;;;8.15;;
52866;SDS011;38739;53.324;6.862;2022-09-30T19:02:38;9.00;;;8.00;;
52866;SDS011;38739;53.324;6.862;2022-09-30T19:05:07;10.77;;;7.90;;
52866;SDS011;38739;53.324;6.862;2022-09-30T19:07:33;10.27;;;8.13;;